sensor_id;sensor_type;location;lat;lon;timestamp;pressure;altitude;pressure_sealevel;temperature;humidity
75998;BME280;64685;48.762;44.822;2023-04-03T00:02:20;100857.03;;;8.54;63.67
75998;BME280;64685;48.762;44.822;2023-04-03T00:07:22;100854.25;;;8.54;63.44
75998;BME280;64685;48.762;44.822;2023-04-03T00:12:25;100858.16;;;8.40;63.54
75998;BME280;64685;48.762;44.822;2023-04-03T00:17:27;100858.44;;;8.38;63.65
75998;BME280;64685;48.762;44.822;2023-04-03T00:22:29;100858.44;;;8.38;63.64
75998;BME280;64685;48.762;44.822;2023-04-03T00:27:32;100849.38;;;8.33;63.69
75998;BME280;64685;48.762;44.822;2023-04-03T00:32:34;100859.47;;;8.29;63.97
75998;BME280;64685;48.762;44.822;2023-04-03T00:37:37;100847.91;;;8.22;64.18
75998;BME280;64685;48.762;44.822;2023-04-03T00:42:41;100861.41;;;8.28;63.81
75998;BME280;64685;48.762;44.822;2023-04-03T00:47:44;100863.03;;;8.29;64.04
75998;BME280;64685;48.762;44.822;2023-04-03T00:52:47;100869.22;;;8.26;63.90
75998;BME280;64685;48.762;44.822;2023-04-03T00:57:51;100871.94;;;8.31;63.82
75998;BME280;64685;48.762;44.822;2023-04-03T01:02:54;100865.44;;;8.36;63.45
75998;BME280;64685;48.762;44.822;2023-04-03T01:07:58;100872.81;;;8.27;63.63
75998;BME280;64685;48.762;44.822;2023-04-03T01:13:00;100879.44;;;8.12;63.88
75998;BME280;64685;48.762;44.822;2023-04-03T01:18:03;100871.50;;;8.06;63.56
75998;BME280;64685;48.762;44.822;2023-04-03T01:28:15;100873.06;;;8.12;63.47
75998;BME280;64685;48.762;44.822;2023-04-03T01:33:19;100875.31;;;8.10;63.12
75998;BME280;64685;48.762;44.822;2023-04-03T01:38:22;100877.72;;;8.16;62.80
75998;BME280;64685;48.762;44.822;2023-04-03T01:43:25;100884.06;;;8.22;62.88
75998;BME280;64685;48.762;44.822;2023-04-03T01:48:27;100878.34;;;8.13;62.92
75998;BME280;64685;48.762;44.822;2023-04-03T01:53:29;100887.56;;;8.09;62.34
75998;BME280;64685;48.762;44.822;2023-04-03T01:58:32;100879.97;;;8.14;62.32
75998;BME280;64685;48.762;44.822;2023-04-03T02:03:35;100874.88;;;8.03;62.89
75998;BME280;64685;48.762;44.822;2023-04-03T02:08:38;100897.50;;;7.78;62.65
75998;BME280;64685;48.762;44.822;2023-04-03T02:13:41;100870.44;;;7.83;63.39
75998;BME280;64685;48.762;44.822;2023-04-03T02:18:43;100892.38;;;7.66;63.24
75998;BME280;64685;48.762;44.822;2023-04-03T02:23:45;100889.97;;;7.78;63.64
75998;BME280;64685;48.762;44.822;2023-04-03T02:28:48;100900.22;;;7.64;62.95
75998;BME280;64685;48.762;44.822;2023-04-03T02:33:50;100890.16;;;7.68;62.92
75998;BME280;64685;48.762;44.822;2023-04-03T02:38:53;100896.31;;;7.65;63.08
75998;BME280;64685;48.762;44.822;2023-04-03T02:43:56;100898.34;;;7.60;63.03
75998;BME280;64685;48.762;44.822;2023-04-03T02:48:58;100905.31;;;7.57;62.83
75998;BME280;64685;48.762;44.822;2023-04-03T02:54:00;100893.44;;;7.70;62.45
75998;BME280;64685;48.762;44.822;2023-04-03T02:59:06;100894.72;;;7.78;62.17
75998;BME280;64685;48.762;44.822;2023-04-03T03:04:11;100909.59;;;7.87;62.14
75998;BME280;64685;48.762;44.822;2023-04-03T03:09:14;100902.91;;;8.06;62.26
75998;BME280;64685;48.762;44.822;2023-04-03T03:14:17;100910.50;;;8.19;61.65
75998;BME280;64685;48.762;44.822;2023-04-03T03:19:19;100916.13;;;8.14;61.42
75998;BME280;64685;48.762;44.822;2023-04-03T03:24:22;100909.38;;;8.02;61.45
75998;BME280;64685;48.762;44.822;2023-04-03T03:29:24;100910.50;;;8.01;61.41
75998;BME280;64685;48.762;44.822;2023-04-03T03:34:27;100912.22;;;8.52;60.75
75998;BME280;64685;48.762;44.822;2023-04-03T03:39:30;100909.81;;;9.18;59.36
75998;BME280;64685;48.762;44.822;2023-04-03T03:44:32;100914.34;;;9.68;58.21
75998;BME280;64685;48.762;44.822;2023-04-03T03:49:35;100912.06;;;10.19;57.23
75998;BME280;64685;48.762;44.822;2023-04-03T03:54:37;100925.78;;;11.04;55.89
75998;BME280;64685;48.762;44.822;2023-04-03T03:59:41;100925.47;;;11.92;54.13
75998;BME280;64685;48.762;44.822;2023-04-03T04:04:44;100927.44;;;12.76;52.94
75998;BME280;64685;48.762;44.822;2023-04-03T04:09:47;100922.34;;;13.99;51.70
75998;BME280;64685;48.762;44.822;2023-04-03T04:14:49;100921.13;;;14.49;50.38
75998;BME280;64685;48.762;44.822;2023-04-03T04:19:52;100926.88;;;13.83;49.94
75998;BME280;64685;48.762;44.822;2023-04-03T04:24:55;100930.31;;;13.22;50.66
75998;BME280;64685;48.762;44.822;2023-04-03T04:29:58;100931.84;;;12.94;50.94
75998;BME280;64685;48.762;44.822;2023-04-03T04:35:04;100932.22;;;12.59;50.49
75998;BME280;64685;48.762;44.822;2023-04-03T04:40:09;100937.50;;;12.60;50.68
75998;BME280;64685;48.762;44.822;2023-04-03T04:45:13;100941.00;;;12.66;50.60
75998;BME280;64685;48.762;44.822;2023-04-03T04:50:19;100944.78;;;12.44;50.32
75998;BME280;64685;48.762;44.822;2023-04-03T04:55:23;100952.19;;;12.57;50.68
75998;BME280;64685;48.762;44.822;2023-04-03T05:00:26;100949.03;;;12.59;50.64
75998;BME280;64685;48.762;44.822;2023-04-03T05:05:29;100941.81;;;13.38;49.79
75998;BME280;64685;48.762;44.822;2023-04-03T05:10:32;100953.56;;;14.18;48.33
75998;BME280;64685;48.762;44.822;2023-04-03T05:15:34;100947.97;;;15.12;47.37
75998;BME280;64685;48.762;44.822;2023-04-03T05:20:38;100955.09;;;16.14;45.65
75998;BME280;64685;48.762;44.822;2023-04-03T05:25:41;100953.47;;;15.65;45.76
75998;BME280;64685;48.762;44.822;2023-04-03T05:30:43;100960.38;;;15.43;45.94
75998;BME280;64685;48.762;44.822;2023-04-03T05:35:46;100962.97;;;15.72;45.18
75998;BME280;64685;48.762;44.822;2023-04-03T05:40:53;100964.84;;;17.66;43.26
75998;BME280;64685;48.762;44.822;2023-04-03T05:45:55;100963.88;;;19.79;40.26
75998;BME280;64685;48.762;44.822;2023-04-03T05:51:00;100968.53;;;20.65;37.92
75998;BME280;64685;48.762;44.822;2023-04-03T05:56:03;100978.13;;;20.57;37.82
75998;BME280;64685;48.762;44.822;2023-04-03T06:01:11;100979.38;;;21.52;36.63
75998;BME280;64685;48.762;44.822;2023-04-03T06:06:14;100978.22;;;22.00;35.31
75998;BME280;64685;48.762;44.822;2023-04-03T06:11:17;100979.97;;;23.75;33.18
75998;BME280;64685;48.762;44.822;2023-04-03T06:16:19;100982.44;;;23.84;30.87
75998;BME280;64685;48.762;44.822;2023-04-03T06:21:22;100988.13;;;24.50;29.68
75998;BME280;64685;48.762;44.822;2023-04-03T06:26:24;100980.78;;;23.72;29.36
75998;BME280;64685;48.762;44.822;2023-04-03T06:31:27;100984.03;;;23.71;29.01
75998;BME280;64685;48.762;44.822;2023-04-03T06:36:29;100986.47;;;23.69;28.36
75998;BME280;64685;48.762;44.822;2023-04-03T06:41:32;100983.28;;;24.09;27.41
75998;BME280;64685;48.762;44.822;2023-04-03T06:46:38;100981.63;;;24.53;27.10
75998;BME280;64685;48.762;44.822;2023-04-03T06:51:40;100984.63;;;25.39;26.27
75998;BME280;64685;48.762;44.822;2023-04-03T06:56:43;100983.41;;;26.05;25.66
75998;BME280;64685;48.762;44.822;2023-04-03T07:01:45;100976.97;;;25.91;25.83
75998;BME280;64685;48.762;44.822;2023-04-03T07:06:48;100976.44;;;25.41;26.22
75998;BME280;64685;48.762;44.822;2023-04-03T07:11:51;100974.31;;;26.14;25.30
75998;BME280;64685;48.762;44.822;2023-04-03T07:16:53;100969.50;;;26.04;24.71
75998;BME280;64685;48.762;44.822;2023-04-03T07:21:56;100963.94;;;25.79;25.06
75998;BME280;64685;48.762;44.822;2023-04-03T07:26:58;100967.38;;;25.53;25.12
75998;BME280;64685;48.762;44.822;2023-04-03T07:32:01;100965.56;;;25.01;24.58
75998;BME280;64685;48.762;44.822;2023-04-03T07:37:04;100966.91;;;25.62;24.21
75998;BME280;64685;48.762;44.822;2023-04-03T07:42:08;100966.53;;;26.95;23.28
75998;BME280;64685;48.762;44.822;2023-04-03T07:47:10;100978.59;;;27.17;22.70
75998;BME280;64685;48.762;44.822;2023-04-03T07:52:13;100975.16;;;27.29;22.61
75998;BME280;64685;48.762;44.822;2023-04-03T07:57:17;100970.31;;;28.55;22.51
75998;BME280;64685;48.762;44.822;2023-04-03T08:02:19;100976.50;;;28.04;21.76
75998;BME280;64685;48.762;44.822;2023-04-03T08:07:22;100979.03;;;27.45;21.98
75998;BME280;64685;48.762;44.822;2023-04-03T08:12:25;100983.91;;;27.48;21.03
75998;BME280;64685;48.762;44.822;2023-04-03T08:17:27;100988.75;;;28.77;20.40
75998;BME280;64685;48.762;44.822;2023-04-03T08:22:30;100986.28;;;28.79;19.18
75998;BME280;64685;48.762;44.822;2023-04-03T08:27:33;100987.47;;;27.86;19.97
75998;BME280;64685;48.762;44.822;2023-04-03T08:32:35;100989.75;;;27.68;20.10
75998;BME280;64685;48.762;44.822;2023-04-03T08:37:38;100994.03;;;28.59;19.57
75998;BME280;64685;48.762;44.822;2023-04-03T08:48:05;100992.56;;;28.51;19.13
75998;BME280;64685;48.762;44.822;2023-04-03T08:53:15;100979.34;;;28.07;18.72
75998;BME280;64685;48.762;44.822;2023-04-03T08:58:20;100983.00;;;28.77;19.01
75998;BME280;64685;48.762;44.822;2023-04-03T09:03:23;100982.41;;;27.67;18.71
75998;BME280;64685;48.762;44.822;2023-04-03T09:08:43;100979.44;;;28.50;17.97
75998;BME280;64685;48.762;44.822;2023-04-03T09:14:07;100982.75;;;29.69;17.16
75998;BME280;64685;48.762;44.822;2023-04-03T09:24:18;100983.44;;;28.29;18.38
75998;BME280;64685;48.762;44.822;2023-04-03T09:29:24;100986.75;;;28.97;17.04
75998;BME280;64685;48.762;44.822;2023-04-03T09:34:31;100979.31;;;29.19;16.96
75998;BME280;64685;48.762;44.822;2023-04-03T09:39:52;100968.47;;;29.26;17.20
75998;BME280;64685;48.762;44.822;2023-04-03T09:45:00;100970.22;;;28.35;17.93
75998;BME280;64685;48.762;44.822;2023-04-03T09:55:21;100976.53;;;29.15;17.28
75998;BME280;64685;48.762;44.822;2023-04-03T10:00:55;100972.53;;;30.00;17.14
75998;BME280;64685;48.762;44.822;2023-04-03T10:05:58;100986.88;;;30.51;17.03
75998;BME280;64685;48.762;44.822;2023-04-03T10:11:17;100966.22;;;28.75;17.84
75998;BME280;64685;48.762;44.822;2023-04-03T10:16:25;100963.09;;;29.99;18.24
75998;BME280;64685;48.762;44.822;2023-04-03T10:21:44;100967.13;;;29.86;17.67
75998;BME280;64685;48.762;44.822;2023-04-03T10:43:06;100959.13;;;28.80;18.54
75998;BME280;64685;48.762;44.822;2023-04-03T10:59:02;100953.03;;;27.56;20.17
75998;BME280;64685;48.762;44.822;2023-04-03T11:04:09;100954.91;;;27.39;19.79
75998;BME280;64685;48.762;44.822;2023-04-03T11:09:32;100940.06;;;27.18;19.78
75998;BME280;64685;48.762;44.822;2023-04-03T11:14:39;100946.91;;;26.53;20.16
75998;BME280;64685;48.762;44.822;2023-04-03T11:20:00;100955.91;;;26.15;20.99
75998;BME280;64685;48.762;44.822;2023-04-03T11:30:34;100952.66;;;24.62;22.08
75998;BME280;64685;48.762;44.822;2023-04-03T11:35:51;100953.03;;;23.59;22.83
75998;BME280;64685;48.762;44.822;2023-04-03T11:40:55;100945.41;;;22.74;23.29
75998;BME280;64685;48.762;44.822;2023-04-03T11:46:04;100935.22;;;22.69;23.70
75998;BME280;64685;48.762;44.822;2023-04-03T12:07:18;100920.03;;;21.90;23.18
75998;BME280;64685;48.762;44.822;2023-04-03T12:12:34;100920.41;;;21.89;22.99
75998;BME280;64685;48.762;44.822;2023-04-03T12:17:38;100932.66;;;21.53;22.89
75998;BME280;64685;48.762;44.822;2023-04-03T12:28:21;100929.56;;;20.92;24.11
75998;BME280;64685;48.762;44.822;2023-04-03T12:33:43;100935.19;;;20.59;25.46
75998;BME280;64685;48.762;44.822;2023-04-03T12:39:20;100940.84;;;20.59;25.11
75998;BME280;64685;48.762;44.822;2023-04-03T12:49:39;100940.22;;;20.43;26.24
75998;BME280;64685;48.762;44.822;2023-04-03T12:54:45;100936.91;;;20.37;26.59
75998;BME280;64685;48.762;44.822;2023-04-03T12:59:48;100939.25;;;20.32;26.84
75998;BME280;64685;48.762;44.822;2023-04-03T13:04:53;100945.25;;;20.27;26.92
75998;BME280;64685;48.762;44.822;2023-04-03T13:10:13;100948.41;;;20.48;26.61
75998;BME280;64685;48.762;44.822;2023-04-03T13:15:30;100951.25;;;20.22;26.52
75998;BME280;64685;48.762;44.822;2023-04-03T13:20:41;100954.50;;;20.20;26.89
75998;BME280;64685;48.762;44.822;2023-04-03T13:25:45;100952.97;;;20.04;27.19
75998;BME280;64685;48.762;44.822;2023-04-03T13:31:08;100961.69;;;19.92;27.31
75998;BME280;64685;48.762;44.822;2023-04-03T13:36:21;100966.09;;;19.89;27.08
75998;BME280;64685;48.762;44.822;2023-04-03T13:41:29;100964.94;;;19.94;27.48
75998;BME280;64685;48.762;44.822;2023-04-03T13:46:32;100963.72;;;19.91;27.81
75998;BME280;64685;48.762;44.822;2023-04-03T13:51:38;100971.00;;;19.70;28.05
75998;BME280;64685;48.762;44.822;2023-04-03T13:56:41;100975.13;;;19.50;28.91
75998;BME280;64685;48.762;44.822;2023-04-03T14:06:48;100976.03;;;19.35;29.36
75998;BME280;64685;48.762;44.822;2023-04-03T14:11:58;100984.09;;;19.33;29.90
75998;BME280;64685;48.762;44.822;2023-04-03T14:17:10;100985.91;;;19.22;29.96
75998;BME280;64685;48.762;44.822;2023-04-03T14:22:28;100988.16;;;19.16;30.21
75998;BME280;64685;48.762;44.822;2023-04-03T14:27:37;100999.00;;;19.11;30.02
75998;BME280;64685;48.762;44.822;2023-04-03T14:32:40;100993.16;;;19.04;30.31
75998;BME280;64685;48.762;44.822;2023-04-03T14:37:42;101003.53;;;18.96;30.59
75998;BME280;64685;48.762;44.822;2023-04-03T14:42:46;101002.09;;;18.87;31.06
75998;BME280;64685;48.762;44.822;2023-04-03T14:47:52;101004.41;;;18.81;31.36
75998;BME280;64685;48.762;44.822;2023-04-03T14:52:58;101007.81;;;18.71;31.79
75998;BME280;64685;48.762;44.822;2023-04-03T14:58:00;101002.66;;;18.58;31.77
75998;BME280;64685;48.762;44.822;2023-04-03T15:03:03;101012.41;;;18.41;32.18
75998;BME280;64685;48.762;44.822;2023-04-03T15:08:13;101016.78;;;18.39;32.50
75998;BME280;64685;48.762;44.822;2023-04-03T15:13:19;101014.22;;;18.34;32.66
75998;BME280;64685;48.762;44.822;2023-04-03T15:18:25;101010.84;;;18.28;33.13
75998;BME280;64685;48.762;44.822;2023-04-03T15:23:31;101007.38;;;18.19;33.33
75998;BME280;64685;48.762;44.822;2023-04-03T15:28:39;101017.69;;;18.12;33.26
75998;BME280;64685;48.762;44.822;2023-04-03T15:33:43;101014.25;;;18.03;33.24
75998;BME280;64685;48.762;44.822;2023-04-03T15:38:45;101020.09;;;17.94;33.76
75998;BME280;64685;48.762;44.822;2023-04-03T15:43:48;101020.28;;;17.86;34.07
75998;BME280;64685;48.762;44.822;2023-04-03T15:48:50;101032.19;;;17.79;34.25
75998;BME280;64685;48.762;44.822;2023-04-03T15:53:52;101032.56;;;17.78;34.19
75998;BME280;64685;48.762;44.822;2023-04-03T15:58:55;101038.81;;;17.71;34.75
75998;BME280;64685;48.762;44.822;2023-04-03T16:03:57;101062.63;;;17.70;34.92
75998;BME280;64685;48.762;44.822;2023-04-03T16:09:00;101060.44;;;17.64;34.92
75998;BME280;64685;48.762;44.822;2023-04-03T16:14:02;101074.91;;;17.62;35.07
75998;BME280;64685;48.762;44.822;2023-04-03T16:19:05;101078.09;;;17.61;35.09
75998;BME280;64685;48.762;44.822;2023-04-03T16:24:08;101088.47;;;17.57;35.05
75998;BME280;64685;48.762;44.822;2023-04-03T16:29:11;101085.91;;;17.52;35.25
75998;BME280;64685;48.762;44.822;2023-04-03T16:34:13;101097.78;;;17.57;35.25
75998;BME280;64685;48.762;44.822;2023-04-03T16:39:15;101100.03;;;17.52;35.17
75998;BME280;64685;48.762;44.822;2023-04-03T16:44:18;101101.84;;;17.44;35.26
75998;BME280;64685;48.762;44.822;2023-04-03T16:49:20;101105.03;;;17.43;35.23
75998;BME280;64685;48.762;44.822;2023-04-03T16:54:23;101117.25;;;17.47;35.68
75998;BME280;64685;48.762;44.822;2023-04-03T16:59:25;101110.56;;;17.39;36.23
75998;BME280;64685;48.762;44.822;2023-04-03T17:04:28;101121.97;;;17.31;36.44
75998;BME280;64685;48.762;44.822;2023-04-03T17:09:32;101119.41;;;17.26;36.66
75998;BME280;64685;48.762;44.822;2023-04-03T17:14:34;101135.75;;;17.20;37.01
75998;BME280;64685;48.762;44.822;2023-04-03T17:19:37;101134.47;;;17.18;37.51
75998;BME280;64685;48.762;44.822;2023-04-03T17:24:40;101148.88;;;17.13;38.78
75998;BME280;64685;48.762;44.822;2023-04-03T17:29:43;101150.53;;;17.02;40.42
75998;BME280;64685;48.762;44.822;2023-04-03T17:34:46;101164.16;;;16.88;41.19
75998;BME280;64685;48.762;44.822;2023-04-03T17:39:49;101156.78;;;16.71;42.26
75998;BME280;64685;48.762;44.822;2023-04-03T17:44:51;101171.13;;;16.66;42.62
75998;BME280;64685;48.762;44.822;2023-04-03T17:49:53;101167.94;;;16.44;43.62
75998;BME280;64685;48.762;44.822;2023-04-03T17:54:56;101174.25;;;16.29;44.80
75998;BME280;64685;48.762;44.822;2023-04-03T17:59:58;101161.78;;;16.18;44.71
75998;BME280;64685;48.762;44.822;2023-04-03T18:05:01;101167.97;;;16.11;45.53
75998;BME280;64685;48.762;44.822;2023-04-03T18:10:05;101163.63;;;16.14;46.35
75998;BME280;64685;48.762;44.822;2023-04-03T18:15:10;101157.75;;;16.07;46.83
75998;BME280;64685;48.762;44.822;2023-04-03T18:20:13;101153.16;;;16.02;48.13
75998;BME280;64685;48.762;44.822;2023-04-03T18:25:18;101155.25;;;15.93;49.15
75998;BME280;64685;48.762;44.822;2023-04-03T18:30:21;101149.75;;;15.97;48.73
75998;BME280;64685;48.762;44.822;2023-04-03T18:35:24;101153.66;;;16.04;48.17
75998;BME280;64685;48.762;44.822;2023-04-03T18:40:27;101152.47;;;16.05;48.78
75998;BME280;64685;48.762;44.822;2023-04-03T18:45:29;101148.59;;;16.10;48.55
75998;BME280;64685;48.762;44.822;2023-04-03T18:50:32;101156.72;;;16.11;49.18
75998;BME280;64685;48.762;44.822;2023-04-03T18:55:35;101155.03;;;15.98;48.89
75998;BME280;64685;48.762;44.822;2023-04-03T19:00:38;101156.50;;;15.51;50.76
75998;BME280;64685;48.762;44.822;2023-04-03T19:05:41;101154.53;;;15.11;51.97
75998;BME280;64685;48.762;44.822;2023-04-03T19:10:44;101162.69;;;15.24;52.44
75998;BME280;64685;48.762;44.822;2023-04-03T19:15:47;101165.28;;;15.29;52.12
75998;BME280;64685;48.762;44.822;2023-04-03T19:20:49;101177.03;;;15.31;51.75
75998;BME280;64685;48.762;44.822;2023-04-03T19:25:58;101176.50;;;15.38;51.32
75998;BME280;64685;48.762;44.822;2023-04-03T19:31:01;101183.78;;;15.39;51.32
75998;BME280;64685;48.762;44.822;2023-04-03T19:36:04;101182.97;;;15.38;51.20
75998;BME280;64685;48.762;44.822;2023-04-03T19:41:10;101178.84;;;15.36;51.40
75998;BME280;64685;48.762;44.822;2023-04-03T19:46:14;101189.97;;;15.32;52.02
75998;BME280;64685;48.762;44.822;2023-04-03T19:51:17;101186.97;;;15.29;52.04
75998;BME280;64685;48.762;44.822;2023-04-03T19:56:19;101187.78;;;15.29;51.98
75998;BME280;64685;48.762;44.822;2023-04-03T20:01:22;101181.56;;;15.24;51.87
75998;BME280;64685;48.762;44.822;2023-04-03T20:06:25;101196.22;;;15.09;52.36
75998;BME280;64685;48.762;44.822;2023-04-03T20:11:28;101205.13;;;14.90;52.48
75998;BME280;64685;48.762;44.822;2023-04-03T20:16:30;101208.38;;;14.72;53.10
75998;BME280;64685;48.762;44.822;2023-04-03T20:21:33;101195.06;;;14.52;54.27
75998;BME280;64685;48.762;44.822;2023-04-03T20:26:35;101195.97;;;14.35;54.43
75998;BME280;64685;48.762;44.822;2023-04-03T20:31:47;101201.13;;;14.25;55.29
75998;BME280;64685;48.762;44.822;2023-04-03T20:36:49;101203.78;;;14.04;55.89
75998;BME280;64685;48.762;44.822;2023-04-03T20:41:53;101208.66;;;13.87;56.74
75998;BME280;64685;48.762;44.822;2023-04-03T20:46:56;101220.84;;;13.82;56.97
75998;BME280;64685;48.762;44.822;2023-04-03T20:51:59;101214.59;;;13.77;57.10
75998;BME280;64685;48.762;44.822;2023-04-03T20:57:01;101219.69;;;13.66;57.77
75998;BME280;64685;48.762;44.822;2023-04-03T21:02:04;101223.50;;;13.53;58.09
75998;BME280;64685;48.762;44.822;2023-04-03T21:23:37;101221.34;;;13.00;61.00
75998;BME280;64685;48.762;44.822;2023-04-03T21:28:39;101228.53;;;12.92;61.46
75998;BME280;64685;48.762;44.822;2023-04-03T21:33:43;101222.06;;;12.83;61.45
75998;BME280;64685;48.762;44.822;2023-04-03T21:38:46;101229.47;;;12.79;61.39
75998;BME280;64685;48.762;44.822;2023-04-03T21:43:48;101239.72;;;12.75;61.88
75998;BME280;64685;48.762;44.822;2023-04-03T21:48:51;101238.88;;;12.75;61.72
75998;BME280;64685;48.762;44.822;2023-04-03T21:53:54;101231.94;;;12.72;62.03
75998;BME280;64685;48.762;44.822;2023-04-03T21:58:57;101231.25;;;12.58;63.24
75998;BME280;64685;48.762;44.822;2023-04-03T22:04:01;101234.81;;;12.50;62.76
75998;BME280;64685;48.762;44.822;2023-04-03T22:09:04;101227.69;;;12.44;63.29
75998;BME280;64685;48.762;44.822;2023-04-03T22:14:06;101240.69;;;12.40;63.62
75998;BME280;64685;48.762;44.822;2023-04-03T22:19:09;101235.88;;;12.32;62.89
75998;BME280;64685;48.762;44.822;2023-04-03T22:24:11;101234.56;;;12.30;63.39
75998;BME280;64685;48.762;44.822;2023-04-03T22:29:14;101236.88;;;12.28;63.35
75998;BME280;64685;48.762;44.822;2023-04-03T22:34:17;101239.13;;;12.26;63.85
75998;BME280;64685;48.762;44.822;2023-04-03T22:39:21;101238.47;;;12.20;63.16
75998;BME280;64685;48.762;44.822;2023-04-03T22:44:23;101242.72;;;12.18;63.58
75998;BME280;64685;48.762;44.822;2023-04-03T22:49:30;101242.69;;;12.09;64.34
75998;BME280;64685;48.762;44.822;2023-04-03T22:54:33;101250.59;;;12.07;64.29
75998;BME280;64685;48.762;44.822;2023-04-03T22:59:35;101245.16;;;12.11;63.88
75998;BME280;64685;48.762;44.822;2023-04-03T23:04:37;101248.47;;;12.13;63.99
75998;BME280;64685;48.762;44.822;2023-04-03T23:09:40;101246.50;;;12.13;64.20
75998;BME280;64685;48.762;44.822;2023-04-03T23:14:43;101255.66;;;12.05;64.17
75998;BME280;64685;48.762;44.822;2023-04-03T23:19:45;101255.91;;;11.95;64.48
75998;BME280;64685;48.762;44.822;2023-04-03T23:24:47;101265.75;;;11.84;65.03
75998;BME280;64685;48.762;44.822;2023-04-03T23:29:50;101265.53;;;11.81;64.97
75998;BME280;64685;48.762;44.822;2023-04-03T23:34:52;101263.13;;;11.66;65.11
75998;BME280;64685;48.762;44.822;2023-04-03T23:39:55;101268.53;;;11.62;65.69
75998;BME280;64685;48.762;44.822;2023-04-03T23:44:57;101289.97;;;11.53;66.25
75998;BME280;64685;48.762;44.822;2023-04-03T23:49:59;101286.81;;;11.33;67.39
75998;BME280;64685;48.762;44.822;2023-04-03T23:55:03;101296.34;;;11.32;66.90
